createdAt,value
2017-06-10T00:00:16.766Z,0
2017-06-10T00:01:16.766Z,0
2017-06-10T00:02:16.788Z,0
2017-06-10T00:03:16.388Z,0
2017-06-10T00:04:15.731Z,0
2017-06-10T00:05:16.341Z,0
2017-06-10T00:06:16.011Z,0
2017-06-10T00:07:16.003Z,0
2017-06-10T00:08:16.281Z,0
2017-06-10T00:09:16.373Z,0
2017-06-10T00:10:16.582Z,0
2017-06-10T00:11:15.961Z,0
2017-06-10T00:12:15.931Z,0
2017-06-10T00:13:16.510Z,0
2017-06-10T00:14:16.201Z,0
2017-06-10T00:15:16.165Z,0
2017-06-10T00:16:16.163Z,0
2017-06-10T00:17:16.150Z,0
2017-06-10T00:18:15.513Z,0
2017-06-10T00:19:15.491Z,0
2017-06-10T00:20:16.413Z,0
2017-06-10T00:21:16.119Z,0
2017-06-10T00:22:15.742Z,0
2017-06-10T00:23:16.029Z,0
2017-06-10T00:24:15.731Z,0
2017-06-10T00:25:15.388Z,0
2017-06-10T00:26:15.985Z,0
2017-06-10T00:27:15.673Z,0
2017-06-10T00:28:15.667Z,0
2017-06-10T00:29:16.274Z,0
2017-06-10T00:30:15.309Z,0
2017-06-10T00:31:15.598Z,0
2017-06-10T00:32:15.953Z,0
2017-06-10T00:33:15.869Z,0
2017-06-10T00:34:15.880Z,0
2017-06-10T00:35:16.154Z,0
2017-06-10T00:36:15.860Z,0
2017-06-10T00:37:15.808Z,0
2017-06-10T00:38:15.489Z,0
2017-06-10T00:39:15.779Z,0
2017-06-10T00:40:15.839Z,0
2017-06-10T00:41:16.083Z,0
2017-06-10T00:42:15.431Z,0
2017-06-10T00:43:15.712Z,0
2017-06-10T00:44:15.709Z,0
2017-06-10T00:45:15.698Z,0
2017-06-10T00:46:15.714Z,0
2017-06-10T00:47:15.651Z,0
2017-06-10T00:48:15.978Z,0
2017-06-10T00:49:15.292Z,0
2017-06-10T00:50:15.611Z,0
2017-06-10T00:51:15.585Z,0
2017-06-10T00:52:15.233Z,0
2017-06-10T00:53:14.917Z,0
2017-06-10T00:54:15.839Z,0
2017-06-10T00:55:15.844Z,0
2017-06-10T00:56:15.503Z,0
2017-06-10T00:57:15.475Z,0
2017-06-10T00:58:15.802Z,0
2017-06-10T00:59:15.142Z,0
2017-06-10T01:00:15.442Z,0
2017-06-10T01:01:15.429Z,0
2017-06-10T01:02:15.090Z,0
2017-06-10T01:03:15.749Z,0
2017-06-10T01:04:14.763Z,0
2017-06-10T01:05:15.023Z,0
2017-06-10T01:06:15.363Z,0
2017-06-10T01:07:15.644Z,0
2017-06-10T01:08:15.052Z,0
2017-06-10T01:09:14.663Z,0
2017-06-10T01:10:14.945Z,0
2017-06-10T01:11:15.253Z,0
2017-06-10T01:12:15.314Z,0
2017-06-10T01:13:15.525Z,0
2017-06-10T01:14:14.914Z,0
2017-06-10T01:15:15.471Z,0
2017-06-10T01:16:14.845Z,0
2017-06-10T01:17:14.911Z,0
2017-06-10T01:18:15.131Z,0
2017-06-10T01:19:14.513Z,0
2017-06-10T01:20:15.099Z,0
2017-06-10T01:21:15.393Z,0
2017-06-10T01:22:15.370Z,0
2017-06-10T01:23:14.562Z,0
2017-06-10T01:24:15.039Z,0
2017-06-10T01:25:14.713Z,0
2017-06-10T01:26:14.673Z,0
2017-06-10T01:27:14.481Z,0
2017-06-10T01:28:14.731Z,0
2017-06-10T01:29:14.715Z,0
2017-06-10T01:30:14.632Z,0
2017-06-10T01:31:14.920Z,0
2017-06-10T01:32:14.586Z,0
2017-06-10T01:33:14.341Z,0
2017-06-10T01:34:14.877Z,0
2017-06-10T01:35:15.171Z,0
2017-06-10T01:36:14.194Z,0
2017-06-10T01:37:14.822Z,0
2017-06-10T01:38:15.160Z,0
2017-06-10T01:39:14.461Z,0
2017-06-10T01:40:14.461Z,0
2017-06-10T01:41:14.462Z,0
2017-06-10T01:42:14.775Z,0
2017-06-10T01:43:14.781Z,0
2017-06-10T01:44:14.792Z,0
2017-06-10T01:45:14.674Z,0
2017-06-10T01:46:14.676Z,0
2017-06-10T01:47:14.642Z,0
2017-06-10T01:48:14.312Z,0
2017-06-10T01:49:14.600Z,0
2017-06-10T01:50:14.643Z,0
2017-06-10T01:51:14.682Z,0
2017-06-10T01:52:14.840Z,0
2017-06-10T01:53:14.233Z,0
2017-06-10T01:54:14.605Z,0
2017-06-10T01:55:14.496Z,0
2017-06-10T01:56:14.271Z,0
2017-06-10T01:57:14.494Z,0
2017-06-10T01:58:14.442Z,0
2017-06-10T01:59:14.482Z,0
2017-06-10T02:00:14.712Z,0
2017-06-10T02:01:14.396Z,0
2017-06-10T02:02:14.081Z,0
2017-06-10T02:03:14.372Z,0
2017-06-10T02:04:14.652Z,0
2017-06-10T02:05:14.389Z,0
2017-06-10T02:06:14.362Z,0
2017-06-10T02:07:14.611Z,0
2017-06-10T02:08:14.586Z,0
2017-06-10T02:09:13.935Z,0
2017-06-10T02:10:14.554Z,0
2017-06-10T02:11:14.554Z,0
2017-06-10T02:12:14.657Z,0
2017-06-10T02:13:13.881Z,0
2017-06-10T02:14:13.859Z,0
2017-06-10T02:15:14.451Z,0
2017-06-10T02:16:14.182Z,0
2017-06-10T02:17:14.191Z,0
2017-06-10T02:18:14.092Z,0
2017-06-10T02:19:14.082Z,0
2017-06-10T02:20:13.762Z,0
2017-06-10T02:21:13.436Z,0
2017-06-10T02:22:14.031Z,0
2017-06-10T02:23:13.710Z,0
2017-06-10T02:24:14.016Z,0
2017-06-10T02:25:14.300Z,0
2017-06-10T02:26:14.261Z,0
2017-06-10T02:27:13.340Z,0
2017-06-10T02:28:13.003Z,0
2017-06-10T02:29:14.220Z,0
2017-06-10T02:30:14.209Z,0
2017-06-10T02:31:13.590Z,0
2017-06-10T02:32:14.171Z,0
2017-06-10T02:33:13.991Z,0
2017-06-10T02:34:13.211Z,0
2017-06-10T02:35:14.145Z,0
2017-06-10T02:36:13.793Z,0
2017-06-10T02:37:13.778Z,0
2017-06-10T02:38:13.153Z,0
2017-06-10T02:39:13.452Z,0
2017-06-10T02:40:13.419Z,0
2017-06-10T02:41:13.107Z,0
2017-06-10T02:42:13.993Z,0
2017-06-10T02:43:14.015Z,0
2017-06-10T02:44:13.657Z,0
2017-06-10T02:45:13.684Z,0
2017-06-10T02:46:13.991Z,0
2017-06-10T02:47:13.302Z,0
2017-06-10T02:48:13.399Z,0
2017-06-10T02:49:13.589Z,0
2017-06-10T02:50:13.251Z,0
2017-06-10T02:51:13.237Z,0
2017-06-10T02:52:13.583Z,0
2017-06-10T02:53:12.573Z,0
2017-06-10T02:54:13.935Z,0
2017-06-10T02:55:13.501Z,0
2017-06-10T02:56:13.513Z,0
2017-06-10T02:57:13.434Z,0
2017-06-10T02:58:13.805Z,0
2017-06-10T02:59:13.401Z,0
2017-06-10T03:00:13.381Z,0
2017-06-10T03:01:13.665Z,0
2017-06-10T03:02:13.350Z,0
2017-06-10T03:03:13.020Z,0
2017-06-10T03:04:12.688Z,0
2017-06-10T03:05:13.612Z,0
2017-06-10T03:06:13.307Z,0
2017-06-10T03:07:13.349Z,0
2017-06-10T03:08:12.950Z,0
2017-06-10T03:09:13.610Z,0
2017-06-10T03:10:13.350Z,0
2017-06-10T03:11:13.193Z,0
2017-06-10T03:12:13.162Z,0
2017-06-10T03:13:12.906Z,0
2017-06-10T03:14:13.148Z,0
2017-06-10T03:15:13.520Z,0
2017-06-10T03:16:13.431Z,5
2017-06-10T03:17:12.766Z,5
2017-06-10T03:18:12.750Z,5
2017-06-10T03:19:13.371Z,5
2017-06-10T03:20:13.392Z,5
2017-06-10T03:21:13.112Z,5
2017-06-10T03:22:13.309Z,5
2017-06-10T03:23:13.287Z,5
2017-06-10T03:24:12.520Z,5
2017-06-10T03:25:13.028Z,5
2017-06-10T03:26:12.934Z,5
2017-06-10T03:27:12.610Z,5
2017-06-10T03:28:12.580Z,5
2017-06-10T03:29:12.572Z,5
2017-06-10T03:30:12.544Z,10
2017-06-10T03:31:13.280Z,10
2017-06-10T03:32:12.809Z,10
2017-06-10T03:33:12.581Z,10
2017-06-10T03:34:12.290Z,10
2017-06-10T03:35:12.433Z,10
2017-06-10T03:36:12.421Z,10
2017-06-10T03:37:12.632Z,10
2017-06-10T03:38:12.389Z,10
2017-06-10T03:39:13.015Z,10
2017-06-10T03:40:12.680Z,15
2017-06-10T03:41:12.427Z,15
2017-06-10T03:42:12.310Z,15
2017-06-10T03:43:12.643Z,15
2017-06-10T03:44:12.883Z,15
2017-06-10T03:45:12.591Z,15
2017-06-10T03:46:12.360Z,15
2017-06-10T03:47:12.212Z,15
2017-06-10T03:48:12.225Z,15
2017-06-10T03:49:12.905Z,15
2017-06-10T03:50:12.499Z,15
2017-06-10T03:51:12.888Z,20
2017-06-10T03:52:12.522Z,20
2017-06-10T03:53:12.134Z,20
2017-06-10T03:54:11.803Z,20
2017-06-10T03:55:12.097Z,20
2017-06-10T03:56:12.375Z,20
2017-06-10T03:57:12.723Z,20
2017-06-10T03:58:12.023Z,20
2017-06-10T03:59:12.651Z,20
2017-06-10T04:00:12.118Z,25
2017-06-10T04:01:11.668Z,25
2017-06-10T04:02:12.633Z,25
2017-06-10T04:03:12.237Z,25
2017-06-10T04:04:12.542Z,25
2017-06-10T04:05:12.246Z,25
2017-06-10T04:06:12.173Z,25
2017-06-10T04:07:11.991Z,25
2017-06-10T04:08:11.547Z,25
2017-06-10T04:09:12.183Z,30
2017-06-10T04:10:12.461Z,30
2017-06-10T04:11:11.800Z,30
2017-06-10T04:12:11.834Z,30
2017-06-10T04:13:12.065Z,30
2017-06-10T04:14:12.052Z,30
2017-06-10T04:15:12.355Z,30
2017-06-10T04:16:11.699Z,30
2017-06-10T04:17:12.010Z,30
2017-06-10T04:18:12.298Z,35
2017-06-10T04:19:12.320Z,35
2017-06-10T04:20:11.634Z,35
2017-06-10T04:21:11.933Z,35
2017-06-10T04:22:11.611Z,35
2017-06-10T04:23:11.599Z,35
2017-06-10T04:24:12.236Z,35
2017-06-10T04:25:11.642Z,35
2017-06-10T04:26:11.538Z,35
2017-06-10T04:27:11.822Z,40
2017-06-10T04:28:11.828Z,40
2017-06-10T04:29:11.790Z,40
2017-06-10T04:30:11.765Z,40
2017-06-10T04:31:11.775Z,40
2017-06-10T04:32:12.110Z,40
2017-06-10T04:33:11.718Z,40
2017-06-10T04:34:12.052Z,40
2017-06-10T04:35:11.055Z,40
2017-06-10T04:36:12.015Z,45
2017-06-10T04:37:11.050Z,45
2017-06-10T04:38:11.615Z,45
2017-06-10T04:39:11.609Z,45
2017-06-10T04:40:11.744Z,45
2017-06-10T04:41:11.568Z,45
2017-06-10T04:42:11.272Z,45
2017-06-10T04:43:11.857Z,45
2017-06-10T04:44:10.611Z,45
2017-06-10T04:45:11.493Z,50
2017-06-10T04:46:11.473Z,50
2017-06-10T04:47:10.868Z,50
2017-06-10T04:48:11.450Z,50
2017-06-10T04:49:11.741Z,50
2017-06-10T04:50:11.793Z,50
2017-06-10T04:51:11.091Z,50
2017-06-10T04:52:11.392Z,50
2017-06-10T04:53:11.350Z,50
2017-06-10T04:54:11.733Z,55
2017-06-10T04:55:11.630Z,55
2017-06-10T04:56:11.644Z,55
2017-06-10T04:57:10.746Z,55
2017-06-10T04:58:11.283Z,55
2017-06-10T04:59:10.991Z,50
2017-06-10T05:00:10.960Z,50
2017-06-10T05:01:10.960Z,50
2017-06-10T05:02:11.206Z,50
2017-06-10T05:03:11.490Z,55
2017-06-10T05:04:11.171Z,55
2017-06-10T05:05:10.852Z,55
2017-06-10T05:06:11.439Z,55
2017-06-10T05:07:11.111Z,55
2017-06-10T05:08:11.081Z,55
2017-06-10T05:09:10.765Z,55
2017-06-10T05:10:11.095Z,55
2017-06-10T05:11:11.345Z,55
2017-06-10T05:12:11.037Z,55
2017-06-10T05:13:11.018Z,60
2017-06-10T05:14:10.701Z,60
2017-06-10T05:15:10.713Z,60
2017-06-10T05:16:10.751Z,60
2017-06-10T05:17:10.941Z,60
2017-06-10T05:18:10.927Z,60
2017-06-10T05:19:10.599Z,60
2017-06-10T05:20:10.588Z,60
2017-06-10T05:21:10.900Z,60
2017-06-10T05:22:10.858Z,60
2017-06-10T05:23:10.528Z,60
2017-06-10T05:24:10.583Z,65
2017-06-10T05:25:10.254Z,65
2017-06-10T05:26:10.527Z,65
2017-06-10T05:27:10.808Z,65
2017-06-10T05:28:11.090Z,65
2017-06-10T05:29:10.514Z,65
2017-06-10T05:30:10.481Z,65
2017-06-10T05:31:10.413Z,65
2017-06-10T05:32:10.754Z,65
2017-06-10T05:33:10.061Z,65
2017-06-10T05:34:10.648Z,70
2017-06-10T05:35:10.715Z,70
2017-06-10T05:36:10.329Z,70
2017-06-10T05:37:10.430Z,70
2017-06-10T05:38:10.893Z,70
2017-06-10T05:39:10.893Z,70
2017-06-10T05:40:10.243Z,70
2017-06-10T05:41:10.574Z,70
2017-06-10T05:42:10.241Z,70
2017-06-10T05:43:09.891Z,70
2017-06-10T05:44:10.609Z,75
2017-06-10T05:45:10.453Z,75
2017-06-10T05:46:10.496Z,75
2017-06-10T05:47:10.737Z,75
2017-06-10T05:48:10.730Z,75
2017-06-10T05:49:10.712Z,75
2017-06-10T05:50:10.078Z,75
2017-06-10T05:51:10.371Z,75
2017-06-10T05:52:10.342Z,75
2017-06-10T05:53:09.730Z,75
2017-06-10T05:54:10.621Z,80
2017-06-10T05:55:10.312Z,80
2017-06-10T05:56:10.294Z,80
2017-06-10T05:57:10.072Z,80
2017-06-10T05:58:09.636Z,80
2017-06-10T05:59:09.932Z,80
2017-06-10T06:00:09.902Z,80
2017-06-10T06:01:10.489Z,80
2017-06-10T06:02:09.871Z,80
2017-06-10T06:03:09.849Z,80
2017-06-10T06:04:10.218Z,85
2017-06-10T06:05:09.805Z,85
2017-06-10T06:06:09.801Z,85
2017-06-10T06:07:09.779Z,85
2017-06-10T06:08:10.074Z,85
2017-06-10T06:09:09.462Z,85
2017-06-10T06:10:09.740Z,85
2017-06-10T06:11:09.720Z,85
2017-06-10T06:12:09.703Z,85
2017-06-10T06:13:10.050Z,85
2017-06-10T06:14:09.652Z,85
2017-06-10T06:15:09.960Z,90
2017-06-10T06:16:09.930Z,90
2017-06-10T06:17:09.610Z,90
2017-06-10T06:18:09.952Z,90
2017-06-10T06:19:10.180Z,90
2017-06-10T06:20:09.990Z,90
2017-06-10T06:21:09.841Z,90
2017-06-10T06:22:09.225Z,90
2017-06-10T06:23:09.850Z,90
2017-06-10T06:24:09.841Z,90
2017-06-10T06:25:09.540Z,90
2017-06-10T06:26:09.840Z,90
2017-06-10T06:27:09.794Z,90
2017-06-10T06:28:09.849Z,90
2017-06-10T06:29:09.739Z,90
2017-06-10T06:30:09.419Z,90
2017-06-10T06:31:10.017Z,90
2017-06-10T06:32:09.681Z,90
2017-06-10T06:33:09.088Z,90
2017-06-10T06:34:09.981Z,90
2017-06-10T06:35:09.653Z,90
2017-06-10T06:36:09.612Z,95
2017-06-10T06:37:09.101Z,95
2017-06-10T06:38:09.590Z,95
2017-06-10T06:39:09.913Z,95
2017-06-10T06:40:09.883Z,95
2017-06-10T06:41:09.541Z,95
2017-06-10T06:42:09.542Z,95
2017-06-10T06:43:10.012Z,100
2017-06-10T06:44:09.501Z,100
2017-06-10T06:45:09.897Z,100
2017-06-10T06:46:08.939Z,100
2017-06-10T06:47:09.159Z,100
2017-06-10T06:48:09.111Z,100
2017-06-10T06:49:09.097Z,105
2017-06-10T06:50:09.419Z,100
2017-06-10T06:51:09.490Z,110
2017-06-10T06:52:09.703Z,105
2017-06-10T06:53:09.511Z,105
2017-06-10T06:54:09.023Z,105
2017-06-10T06:55:09.751Z,105
2017-06-10T06:56:09.310Z,105
2017-06-10T06:57:08.782Z,105
2017-06-10T06:58:09.388Z,110
2017-06-10T06:59:09.258Z,110
2017-06-10T07:00:09.300Z,110
2017-06-10T07:01:09.270Z,110
2017-06-10T07:02:09.196Z,110
2017-06-10T07:03:08.873Z,110
2017-06-10T07:04:09.582Z,110
2017-06-10T07:05:09.161Z,110
2017-06-10T07:06:09.161Z,115
2017-06-10T07:07:08.972Z,115
2017-06-10T07:08:09.452Z,115
2017-06-10T07:09:08.770Z,115
2017-06-10T07:10:09.093Z,115
2017-06-10T07:11:08.904Z,115
2017-06-10T07:12:08.489Z,115
2017-06-10T07:13:09.122Z,120
2017-06-10T07:14:09.360Z,120
2017-06-10T07:15:09.351Z,120
2017-06-10T07:16:08.730Z,120
2017-06-10T07:17:08.669Z,120
2017-06-10T07:18:08.649Z,120
2017-06-10T07:19:08.631Z,120
2017-06-10T07:20:09.291Z,125
2017-06-10T07:21:08.595Z,125
2017-06-10T07:22:08.710Z,125
2017-06-10T07:23:08.579Z,125
2017-06-10T07:24:09.176Z,125
2017-06-10T07:25:08.241Z,125
2017-06-10T07:26:08.528Z,125
2017-06-10T07:27:08.502Z,125
2017-06-10T07:28:08.810Z,125
2017-06-10T07:29:09.191Z,125
2017-06-10T07:30:09.191Z,125
2017-06-10T07:31:08.762Z,125
2017-06-10T07:32:08.722Z,125
2017-06-10T07:33:08.720Z,135
2017-06-10T07:34:08.092Z,130
2017-06-10T07:35:08.717Z,130
2017-06-10T07:36:08.371Z,130
2017-06-10T07:37:08.723Z,130
2017-06-10T07:38:08.640Z,135
2017-06-10T07:39:08.402Z,135
2017-06-10T07:40:08.642Z,135
2017-06-10T07:41:08.662Z,135
2017-06-10T07:42:08.591Z,140
2017-06-10T07:43:08.888Z,140
2017-06-10T07:44:08.570Z,140
2017-06-10T07:45:08.856Z,140
2017-06-10T07:46:08.851Z,145
2017-06-10T07:47:08.841Z,145
2017-06-10T07:48:08.205Z,145
2017-06-10T07:49:08.462Z,145
2017-06-10T07:50:08.757Z,150
2017-06-10T07:51:08.451Z,150
2017-06-10T07:52:08.519Z,155
2017-06-10T07:53:08.754Z,150
2017-06-10T07:54:08.410Z,150
2017-06-10T07:55:08.390Z,155
2017-06-10T07:56:07.782Z,155
2017-06-10T07:57:08.695Z,155
2017-06-10T07:58:08.123Z,155
2017-06-10T07:59:07.725Z,160
2017-06-10T08:00:08.338Z,160
2017-06-10T08:01:08.001Z,160
2017-06-10T08:02:08.606Z,165
2017-06-10T08:03:07.381Z,165
2017-06-10T08:04:08.253Z,165
2017-06-10T08:05:08.237Z,165
2017-06-10T08:06:08.371Z,170
2017-06-10T08:07:08.330Z,170
2017-06-10T08:08:07.894Z,175
2017-06-10T08:09:08.501Z,175
2017-06-10T08:10:08.238Z,175
2017-06-10T08:11:08.332Z,180
2017-06-10T08:12:08.528Z,180
2017-06-10T08:13:08.457Z,180
2017-06-10T08:14:08.130Z,180
2017-06-10T08:15:08.198Z,180
2017-06-10T08:16:08.409Z,185
2017-06-10T08:17:08.383Z,185
2017-06-10T08:18:07.450Z,185
2017-06-10T08:19:08.110Z,190
2017-06-10T08:20:08.351Z,190
2017-06-10T08:21:08.144Z,190
2017-06-10T08:22:08.014Z,190
2017-06-10T08:23:08.304Z,200
2017-06-10T08:24:08.002Z,195
2017-06-10T08:25:07.696Z,195
2017-06-10T08:26:08.274Z,200
2017-06-10T08:27:08.396Z,200
2017-06-10T08:28:08.232Z,200
2017-06-10T08:29:08.226Z,205
2017-06-10T08:30:07.923Z,205
2017-06-10T08:31:08.252Z,205
2017-06-10T08:32:08.002Z,205
2017-06-10T08:33:07.884Z,210
2017-06-10T08:34:07.584Z,205
2017-06-10T08:35:07.239Z,205
2017-06-10T08:36:07.581Z,205
2017-06-10T08:37:07.522Z,205
2017-06-10T08:38:07.923Z,205
2017-06-10T08:39:07.505Z,210
2017-06-10T08:40:07.892Z,210
2017-06-10T08:41:07.466Z,215
2017-06-10T08:42:07.765Z,190
2017-06-10T08:43:07.137Z,65
2017-06-10T08:44:07.434Z,65
2017-06-10T08:45:07.431Z,65
2017-06-10T08:46:07.713Z,65
2017-06-10T08:47:07.712Z,65
2017-06-10T08:48:07.132Z,65
2017-06-10T08:49:07.978Z,65
2017-06-10T08:50:07.411Z,65
2017-06-10T08:51:08.044Z,65
2017-06-10T08:52:07.659Z,65
2017-06-10T08:53:07.418Z,65
2017-06-10T08:54:07.316Z,65
2017-06-10T08:55:07.297Z,65
2017-06-10T08:56:07.296Z,65
2017-06-10T08:57:07.622Z,65
2017-06-10T08:58:07.266Z,65
2017-06-10T08:59:07.564Z,65
2017-06-10T09:00:07.550Z,65
2017-06-10T09:01:07.242Z,60
2017-06-10T09:02:07.517Z,85
2017-06-10T09:03:07.806Z,90
2017-06-10T09:04:07.492Z,90
2017-06-10T09:05:07.173Z,90
2017-06-10T09:06:07.229Z,90
2017-06-10T09:07:07.434Z,90
2017-06-10T09:08:07.421Z,90
2017-06-10T09:09:07.755Z,90
2017-06-10T09:10:07.106Z,90
2017-06-10T09:11:07.419Z,90
2017-06-10T09:12:07.370Z,90
2017-06-10T09:13:07.392Z,95
2017-06-10T09:14:07.370Z,95
2017-06-10T09:15:07.042Z,95
2017-06-10T09:16:07.452Z,95
2017-06-10T09:17:07.354Z,95
2017-06-10T09:18:07.310Z,95
2017-06-10T09:19:07.301Z,95
2017-06-10T09:20:07.309Z,100
2017-06-10T09:21:07.389Z,100
2017-06-10T09:22:07.285Z,100
2017-06-10T09:23:07.262Z,105
2017-06-10T09:24:07.230Z,110
2017-06-10T09:25:07.524Z,95
2017-06-10T09:26:07.541Z,85
2017-06-10T09:27:07.251Z,90
2017-06-10T09:28:07.201Z,480
2017-06-10T09:29:07.263Z,465
2017-06-10T09:30:07.471Z,685
2017-06-10T09:31:07.159Z,575
2017-06-10T09:32:06.834Z,585
2017-06-10T09:33:07.448Z,580
2017-06-10T09:34:07.439Z,565
2017-06-10T09:35:07.097Z,945
2017-06-10T09:36:06.807Z,655
2017-06-10T09:37:07.452Z,855
2017-06-10T09:38:07.457Z,745
2017-06-10T09:39:07.059Z,995
2017-06-10T09:40:07.371Z,980
2017-06-10T09:41:07.096Z,745
2017-06-10T09:42:07.358Z,805
2017-06-10T09:43:07.371Z,840
2017-06-10T09:44:07.038Z,835
2017-06-10T09:45:07.326Z,815
2017-06-10T09:46:07.346Z,685
2017-06-10T09:47:07.371Z,620
2017-06-10T09:48:06.734Z,700
2017-06-10T09:49:07.336Z,450
2017-06-10T09:50:07.333Z,550
2017-06-10T09:51:06.968Z,405
2017-06-10T09:52:06.940Z,335
2017-06-10T09:53:07.284Z,300
2017-06-10T09:54:07.295Z,275
2017-06-10T09:55:06.926Z,270
2017-06-10T09:56:07.295Z,255
2017-06-10T09:57:06.915Z,260
2017-06-10T09:58:06.919Z,280
2017-06-10T09:59:07.204Z,315
2017-06-10T10:00:07.279Z,375
2017-06-10T10:01:06.871Z,535
2017-06-10T10:02:06.875Z,405
2017-06-10T10:03:06.850Z,360
2017-06-10T10:04:07.179Z,335
2017-06-10T10:05:06.834Z,320
2017-06-10T10:06:06.834Z,375
2017-06-10T10:07:07.134Z,455
2017-06-10T10:08:06.818Z,350
2017-06-10T10:09:06.192Z,350
2017-06-10T10:10:06.889Z,385
2017-06-10T10:11:06.996Z,420
2017-06-10T10:12:06.781Z,370
2017-06-10T10:13:07.064Z,485
2017-06-10T10:14:06.783Z,445
2017-06-10T10:15:06.439Z,700
2017-06-10T10:16:06.734Z,585
2017-06-10T10:17:07.020Z,715
2017-06-10T10:18:06.393Z,465
2017-06-10T10:19:06.812Z,830
2017-06-10T10:20:06.814Z,745
2017-06-10T10:21:06.367Z,855
2017-06-10T10:22:06.982Z,780
2017-06-10T10:23:06.662Z,425
2017-06-10T10:24:07.043Z,415
2017-06-10T10:25:06.938Z,385
2017-06-10T10:26:06.973Z,380
2017-06-10T10:27:06.951Z,370
2017-06-10T10:28:06.320Z,410
2017-06-10T10:29:06.050Z,470
2017-06-10T10:30:06.621Z,465
2017-06-10T10:31:07.078Z,435
2017-06-10T10:32:06.657Z,455
2017-06-10T10:33:06.262Z,535
2017-06-10T10:34:06.597Z,570
2017-06-10T10:35:07.118Z,440
2017-06-10T10:36:06.909Z,380
2017-06-10T10:37:06.558Z,375
2017-06-10T10:38:06.225Z,410
2017-06-10T10:39:05.894Z,385
2017-06-10T10:40:06.552Z,340
2017-06-10T10:41:06.843Z,340
2017-06-10T10:42:06.821Z,350
2017-06-10T10:43:06.510Z,375
2017-06-10T10:44:06.175Z,400
2017-06-10T10:45:06.470Z,365
2017-06-10T10:46:06.822Z,340
2017-06-10T10:47:06.756Z,330
2017-06-10T10:48:06.757Z,325
2017-06-10T10:49:06.134Z,325
2017-06-10T10:50:06.430Z,335
2017-06-10T10:51:06.740Z,330
2017-06-10T10:52:06.804Z,330
2017-06-10T10:53:06.149Z,325
2017-06-10T10:54:06.698Z,320
2017-06-10T10:55:06.380Z,315
2017-06-10T10:56:06.050Z,310
2017-06-10T10:57:06.141Z,305
2017-06-10T10:58:06.659Z,305
2017-06-10T10:59:06.341Z,305
2017-06-10T11:00:06.344Z,310
2017-06-10T11:01:06.641Z,320
2017-06-10T11:02:06.320Z,310
2017-06-10T11:03:06.311Z,320
2017-06-10T11:04:06.310Z,315
2017-06-10T11:05:05.974Z,320
2017-06-10T11:06:06.437Z,320
2017-06-10T11:07:05.724Z,320
2017-06-10T11:08:06.310Z,355
2017-06-10T11:09:06.265Z,325
2017-06-10T11:10:06.392Z,335
2017-06-10T11:11:06.011Z,390
2017-06-10T11:12:06.243Z,345
2017-06-10T11:13:05.890Z,355
2017-06-10T11:14:06.262Z,345
2017-06-10T11:15:05.991Z,355
2017-06-10T11:16:05.567Z,400
2017-06-10T11:17:06.222Z,370
2017-06-10T11:18:06.502Z,335
2017-06-10T11:19:06.476Z,335
2017-06-10T11:20:05.901Z,330
2017-06-10T11:21:06.566Z,330
2017-06-10T11:22:06.139Z,370
2017-06-10T11:23:06.194Z,335
2017-06-10T11:24:06.417Z,330
2017-06-10T11:25:05.891Z,325
2017-06-10T11:26:06.101Z,390
2017-06-10T11:27:06.227Z,370
2017-06-10T11:28:06.071Z,370
2017-06-10T11:29:06.082Z,355
2017-06-10T11:30:06.361Z,325
2017-06-10T11:31:05.742Z,335
2017-06-10T11:32:06.358Z,315
2017-06-10T11:33:06.354Z,320
2017-06-10T11:34:06.310Z,310
2017-06-10T11:35:06.439Z,335
2017-06-10T11:36:06.002Z,305
2017-06-10T11:37:06.120Z,305
2017-06-10T11:38:06.079Z,315
2017-06-10T11:39:05.973Z,315
2017-06-10T11:40:06.298Z,375
2017-06-10T11:41:05.971Z,315
2017-06-10T11:42:05.995Z,300
2017-06-10T11:43:06.313Z,270
2017-06-10T11:44:06.240Z,260
2017-06-10T11:45:06.252Z,310
2017-06-10T11:46:05.615Z,310
2017-06-10T11:47:05.609Z,290
2017-06-10T11:48:06.239Z,330
2017-06-10T11:49:05.902Z,310
2017-06-10T11:50:06.194Z,275
2017-06-10T11:51:05.863Z,260
2017-06-10T11:52:05.312Z,260
2017-06-10T11:53:05.860Z,265
2017-06-10T11:54:06.151Z,285
2017-06-10T11:55:05.552Z,280
2017-06-10T11:56:06.162Z,365
2017-06-10T11:57:05.547Z,345
2017-06-10T11:58:05.559Z,360
2017-06-10T11:59:05.907Z,360
2017-06-10T12:00:05.549Z,345
2017-06-10T12:01:05.245Z,330
2017-06-10T12:02:05.489Z,240
2017-06-10T12:03:05.609Z,220
2017-06-10T12:04:06.081Z,245
2017-06-10T12:05:06.176Z,280
2017-06-10T12:06:06.085Z,280
2017-06-10T12:07:06.050Z,275
2017-06-10T12:08:05.851Z,265
2017-06-10T12:09:05.819Z,230
2017-06-10T12:10:06.131Z,220
2017-06-10T12:11:05.760Z,215
2017-06-10T12:12:06.070Z,210
2017-06-10T12:13:05.799Z,260
2017-06-10T12:14:06.114Z,225
2017-06-10T12:15:06.052Z,215
2017-06-10T12:16:05.979Z,250
2017-06-10T12:17:05.660Z,230
2017-06-10T12:18:05.956Z,240
2017-06-10T12:19:05.925Z,255
2017-06-10T12:20:05.975Z,265
2017-06-10T12:21:05.313Z,250
2017-06-10T12:22:05.019Z,240
2017-06-10T12:23:05.595Z,230
2017-06-10T12:24:05.597Z,230
2017-06-10T12:25:05.310Z,280
2017-06-10T12:26:05.581Z,285
2017-06-10T12:27:05.894Z,280
2017-06-10T12:28:05.877Z,275
2017-06-10T12:29:05.858Z,280
2017-06-10T12:30:05.544Z,215
2017-06-10T12:31:05.016Z,220
2017-06-10T12:32:05.825Z,245
2017-06-10T12:33:05.199Z,265
2017-06-10T12:34:05.829Z,295
2017-06-10T12:35:05.542Z,275
2017-06-10T12:36:05.847Z,305
2017-06-10T12:37:05.452Z,295
2017-06-10T12:38:04.852Z,295
2017-06-10T12:39:05.507Z,235
2017-06-10T12:40:05.778Z,250
2017-06-10T12:41:05.189Z,235
2017-06-10T12:42:05.439Z,235
2017-06-10T12:43:05.119Z,250
2017-06-10T12:44:05.713Z,255
2017-06-10T12:45:04.802Z,265
2017-06-10T12:46:05.749Z,260
2017-06-10T12:47:05.699Z,260
2017-06-10T12:48:05.793Z,290
2017-06-10T12:49:05.750Z,290
2017-06-10T12:50:05.738Z,280
2017-06-10T12:51:05.706Z,265
2017-06-10T12:52:05.730Z,265
2017-06-10T12:53:05.680Z,250
2017-06-10T12:54:05.337Z,210
2017-06-10T12:55:05.321Z,205
2017-06-10T12:56:05.015Z,220
2017-06-10T12:57:05.007Z,205
2017-06-10T12:58:05.678Z,260
2017-06-10T12:59:05.054Z,225
2017-06-10T13:00:04.980Z,190
2017-06-10T13:01:05.651Z,185
2017-06-10T13:02:05.581Z,215
2017-06-10T13:03:05.554Z,240
2017-06-10T13:04:05.608Z,255
2017-06-10T13:05:05.230Z,280
2017-06-10T13:06:05.223Z,270
2017-06-10T13:07:05.551Z,270
2017-06-10T13:08:05.498Z,255
2017-06-10T13:09:05.189Z,260
2017-06-10T13:10:05.499Z,235
2017-06-10T13:11:04.647Z,240
2017-06-10T13:12:05.169Z,205
2017-06-10T13:13:04.859Z,235
2017-06-10T13:14:05.452Z,210
2017-06-10T13:15:05.160Z,245
2017-06-10T13:16:05.148Z,240
2017-06-10T13:17:05.440Z,215
2017-06-10T13:18:05.469Z,220
2017-06-10T13:19:05.102Z,205
2017-06-10T13:20:05.170Z,195
2017-06-10T13:21:04.891Z,185
2017-06-10T13:22:05.094Z,175
2017-06-10T13:23:05.461Z,185
2017-06-10T13:24:05.079Z,185
2017-06-10T13:25:05.349Z,180
2017-06-10T13:26:04.804Z,180
2017-06-10T13:27:05.096Z,180
2017-06-10T13:28:05.089Z,180
2017-06-10T13:29:05.328Z,185
2017-06-10T13:30:05.106Z,185
2017-06-10T13:31:05.335Z,185
2017-06-10T13:32:05.028Z,180
2017-06-10T13:33:04.976Z,190
2017-06-10T13:34:05.233Z,190
2017-06-10T13:35:05.013Z,195
2017-06-10T13:36:05.338Z,200
2017-06-10T13:37:04.965Z,200
2017-06-10T13:38:04.380Z,200
2017-06-10T13:39:04.958Z,200
2017-06-10T13:40:04.906Z,200
2017-06-10T13:41:04.917Z,200
2017-06-10T13:42:05.272Z,210
2017-06-10T13:43:05.248Z,210
2017-06-10T13:44:04.929Z,210
2017-06-10T13:45:05.193Z,210
2017-06-10T13:46:05.217Z,210
2017-06-10T13:47:05.183Z,210
2017-06-10T13:48:04.927Z,205
2017-06-10T13:49:05.210Z,200
2017-06-10T13:50:05.135Z,190
2017-06-10T13:51:05.171Z,185
2017-06-10T13:52:05.118Z,175
2017-06-10T13:53:05.152Z,175
2017-06-10T13:54:05.151Z,175
2017-06-10T13:55:04.781Z,175
2017-06-10T13:56:04.762Z,180
2017-06-10T13:57:05.085Z,175
2017-06-10T13:58:05.107Z,170
2017-06-10T13:59:05.054Z,170
2017-06-10T14:00:05.032Z,170
2017-06-10T14:01:05.028Z,170
2017-06-10T14:02:05.031Z,175
2017-06-10T14:03:04.379Z,180
2017-06-10T14:04:04.995Z,185
2017-06-10T14:05:04.998Z,190
2017-06-10T14:06:04.669Z,200
2017-06-10T14:07:04.967Z,200
2017-06-10T14:08:04.662Z,215